Time;durP1;ratioP1;P1;durP2;ratioP2;P2;SDS_P1;SDS_P2;PMS_P1;PMS_P2;Temp;Humidity;BMP_temperature;BMP_pressure;BME280_temperature;BME280_humidity;BME280_pressure;Samples;Min_cycle;Max_cycle;Signal;HPM_P1;HPM_P2
2020/12/03 00:02:06;;;;;;;18.27;2.88;;;15.20;99.90;;;;;;5074736;28;20098;-68
2020/12/03 00:04:33;;;;;;;17.38;4.13;;;15.20;99.90;;;;;;5074112;28;20492;-69
2020/12/03 00:07:02;;;;;;;20.42;3.72;;;15.20;99.90;;;;;;5074258;28;20059;-69
2020/12/03 00:09:30;;;;;;;21.55;3.38;;;15.20;99.90;;;;;;5074470;28;20119;-68
2020/12/03 00:11:59;;;;;;;19.00;2.63;;;15.20;99.90;;;;;;5072873;28;20048;-68
2020/12/03 00:14:27;;;;;;;10.45;1.98;;;15.20;99.90;;;;;;5072516;28;20044;-68
2020/12/03 00:16:55;;;;;;;10.32;2.35;;;15.20;99.90;;;;;;5071735;28;20045;-68
2020/12/03 00:19:25;;;;;;;18.30;3.25;;;15.20;99.90;;;;;;5074139;28;20102;-68
2020/12/03 00:22:01;;;;;;;23.33;4.60;;;15.20;99.90;;;;;;5073047;28;20044;-68
2020/12/03 00:24:31;;;;;;;12.50;4.55;;;15.20;99.90;;;;;;5073972;28;20053;-68
2020/12/03 00:27:07;;;;;;;16.88;2.97;;;15.10;99.90;;;;;;5073777;28;20059;-69
2020/12/03 00:29:35;;;;;;;26.63;4.72;;;15.10;99.90;;;;;;5072658;28;20492;-69
2020/12/03 00:32:04;;;;;;;26.42;6.93;;;15.10;99.90;;;;;;5072615;28;20054;-68
2020/12/03 00:34:32;;;;;;;16.90;5.13;;;15.00;99.90;;;;;;5072346;28;20136;-68
2020/12/03 00:37:01;;;;;;;17.40;5.53;;;15.00;99.90;;;;;;5072050;28;20072;-69
2020/12/03 00:39:29;;;;;;;8.23;1.75;;;15.00;99.90;;;;;;5072440;28;20048;-69
2020/12/03 00:41:57;;;;;;;6.65;1.27;;;14.80;99.90;;;;;;5073647;28;20056;-69
2020/12/03 00:44:24;;;;;;;8.57;1.05;;;14.50;99.90;;;;;;5071940;28;20067;-68
2020/12/03 00:46:52;;;;;;;3.75;0.60;;;14.40;99.90;;;;;;5052540;28;20048;-68
2020/12/03 00:49:20;;;;;;;16.90;12.48;;;14.20;99.90;;;;;;5065569;28;20385;-68
2020/12/03 00:51:52;;;;;;;4.93;2.47;;;14.00;99.90;;;;;;5072275;28;20055;-68
2020/12/03 00:54:26;;;;;;;3.70;0.60;;;13.90;99.90;;;;;;5064652;28;20444;-69
2020/12/03 00:56:54;;;;;;;4.43;1.38;;;13.80;99.90;;;;;;5072195;28;20496;-69
2020/12/03 00:59:23;;;;;;;1.85;0.77;;;13.80;99.90;;;;;;5071928;28;20044;-69
2020/12/03 01:01:51;;;;;;;8.35;2.90;;;13.80;99.90;;;;;;5073708;28;20412;-68
2020/12/03 01:04:18;;;;;;;3.90;1.95;;;13.80;99.90;;;;;;5072982;28;20052;-69
2020/12/03 01:06:46;;;;;;;2.28;0.50;;;13.80;99.90;;;;;;5072012;28;20048;-68
2020/12/03 01:09:14;;;;;;;2.83;0.40;;;13.80;99.90;;;;;;5071591;28;20056;-68
2020/12/03 01:11:41;;;;;;;7.50;1.38;;;13.90;99.90;;;;;;5073152;28;20124;-69
2020/12/03 01:14:08;;;;;;;20.35;2.97;;;14.00;99.90;;;;;;5072421;28;20063;-69
2020/12/03 01:16:36;;;;;;;20.63;5.38;;;14.20;99.90;;;;;;5071647;28;20416;-68
2020/12/03 01:19:03;;;;;;;24.70;5.07;;;14.50;99.90;;;;;;5072819;28;20052;-69
2020/12/03 01:21:31;;;;;;;27.13;5.20;;;14.60;99.90;;;;;;5063927;28;20068;-68
2020/12/03 01:23:58;;;;;;;25.02;5.22;;;14.70;99.90;;;;;;5072803;28;20514;-68
2020/12/03 01:26:25;;;;;;;28.73;5.30;;;14.70;99.90;;;;;;5072442;28;20102;-68
2020/12/03 01:28:53;;;;;;;20.55;4.88;;;14.80;99.90;;;;;;5072726;28;20078;-68
2020/12/03 01:31:20;;;;;;;25.83;3.65;;;14.80;99.90;;;;;;5071612;28;20063;-69
2020/12/03 01:33:47;;;;;;;36.90;7.28;;;14.90;99.90;;;;;;5071385;28;20450;-69
2020/12/03 01:36:15;;;;;;;26.80;4.35;;;14.90;99.90;;;;;;5036145;28;20041;-68
2020/12/03 01:38:43;;;;;;;23.35;4.88;;;14.90;99.90;;;;;;5051838;28;20060;-68
2020/12/03 01:41:10;;;;;;;19.17;6.35;;;14.90;99.90;;;;;;5054800;28;20048;-69
2020/12/03 01:43:45;;;;;;;26.30;6.45;;;14.90;99.90;;;;;;5072971;28;20448;-69
2020/12/03 01:46:13;;;;;;;21.02;6.65;;;14.80;99.90;;;;;;5071170;28;20063;-69
2020/12/03 01:49:04;;;;;;;29.55;4.93;;;14.90;99.90;;;;;;5058320;28;20037;-68
2020/12/03 01:51:43;;;;;;;11.57;2.75;;;14.90;99.90;;;;;;5064965;28;20056;-68
2020/12/03 01:54:15;;;;;;;10.15;2.97;;;14.60;99.90;;;;;;5070780;28;20056;-70
2020/12/03 04:54:22;;;;;;;22.30;3.13;;;13.40;99.90;;;;;;5086543;27;20833;-68
2020/12/03 04:57:16;;;;;;;19.52;2.30;;;13.50;99.90;;;;;;4997903;28;20051;-68
2020/12/03 04:59:59;;;;;;;6.68;1.35;;;13.60;99.90;;;;;;4994544;28;20049;-69
2020/12/03 05:02:39;;;;;;;14.57;4.25;;;13.60;99.90;;;;;;5031123;27;20053;-69
2020/12/03 05:05:24;;;;;;;32.17;4.63;;;13.60;99.90;;;;;;4997867;28;20046;-69
2020/12/03 05:08:09;;;;;;;15.47;3.23;;;13.70;99.90;;;;;;4999947;28;20139;-69
2020/12/03 05:10:47;;;;;;;10.38;2.25;;;13.70;99.90;;;;;;5017056;28;20058;-66
2020/12/03 05:13:21;;;;;;;11.95;2.35;;;13.70;99.90;;;;;;5017874;28;20510;-68
2020/12/03 05:15:55;;;;;;;16.23;2.33;;;13.80;99.90;;;;;;5008010;28;20050;-68
2020/12/03 05:18:41;;;;;;;17.65;1.73;;;13.80;99.90;;;;;;4994730;28;20054;-68
2020/12/03 05:21:15;;;;;;;12.90;3.45;;;13.80;99.90;;;;;;5013481;28;20125;-68
2020/12/03 05:23:43;;;;;;;14.90;2.20;;;13.90;99.90;;;;;;5004267;28;20084;-67
2020/12/03 05:26:20;;;;;;;14.93;1.92;;;13.90;99.90;;;;;;5015514;28;20046;-68
2020/12/03 05:29:14;;;;;;;18.30;3.08;;;13.90;99.90;;;;;;5006517;28;20042;-67
2020/12/03 05:31:45;;;;;;;12.35;1.60;;;14.00;99.90;;;;;;5037803;28;20057;-69
2020/12/03 05:34:20;;;;;;;13.70;2.30;;;14.00;99.90;;;;;;5007626;28;20056;-68
2020/12/03 05:36:54;;;;;;;10.40;1.55;;;14.00;99.90;;;;;;5022261;28;20066;-68
2020/12/03 05:39:36;;;;;;;9.30;1.20;;;14.00;99.90;;;;;;5011043;28;20050;-68
2020/12/03 05:42:06;;;;;;;7.80;1.85;;;14.00;99.90;;;;;;5022082;28;20372;-69
2020/12/03 05:44:50;;;;;;;125.53;72.47;;;14.00;99.90;;;;;;5005675;28;20057;-68
2020/12/03 05:47:23;;;;;;;17.75;6.03;;;13.90;99.90;;;;;;5023604;28;20095;-68
2020/12/03 05:49:57;;;;;;;11.32;2.20;;;13.90;99.90;;;;;;5009952;28;20054;-69
2020/12/03 05:52:27;;;;;;;12.98;2.10;;;13.90;99.90;;;;;;5016652;28;20066;-68
2020/12/03 05:55:07;;;;;;;11.38;2.20;;;13.80;99.90;;;;;;5016823;28;20141;-68
2020/12/03 05:57:36;;;;;;;10.38;1.13;;;13.80;99.90;;;;;;5004020;28;20506;-68
2020/12/03 06:00:07;;;;;;;10.68;1.30;;;13.70;99.90;;;;;;4995345;28;20053;-71
2020/12/03 06:02:59;;;;;;;12.27;1.98;;;13.70;99.90;;;;;;5006834;28;20051;-67
2020/12/03 06:05:58;;;;;;;11.43;1.30;;;13.70;99.90;;;;;;5001540;28;20062;-68
2020/12/03 06:08:31;;;;;;;14.23;1.58;;;13.60;99.90;;;;;;4982504;28;20057;-68
2020/12/03 06:11:10;;;;;;;;;;;13.60;99.90;;;;;;5004998;28;20451;-68
2020/12/03 06:14:00;;;;;;;13.70;2.00;;;13.60;99.90;;;;;;4990853;28;20016;-68
2020/12/03 06:16:53;;;;;;;17.00;1.48;;;13.60;99.90;;;;;;5003131;28;20043;-69
2020/12/03 06:19:46;;;;;;;21.40;3.05;;;13.50;99.90;;;;;;4992114;28;20051;-69
2020/12/03 06:22:33;;;;;;;18.85;2.08;;;13.50;99.90;;;;;;5006913;28;20495;-67
2020/12/03 06:25:21;;;;;;;15.18;2.33;;;13.50;99.90;;;;;;4983167;28;20046;-69
2020/12/03 06:28:01;;;;;;;12.55;2.47;;;13.50;99.90;;;;;;5003531;28;20054;-70
2020/12/03 06:30:31;;;;;;;14.90;2.47;;;13.50;99.90;;;;;;4993974;28;20074;-68
2020/12/03 06:33:29;;;;;;;7.15;2.15;;;13.50;99.90;;;;;;4999605;28;20054;-68
2020/12/03 06:36:18;;;;;;;19.85;3.28;;;13.50;99.90;;;;;;5014673;28;20141;-69
2020/12/03 06:39:16;;;;;;;21.10;3.03;;;13.40;99.90;;;;;;5007518;28;20061;-68
2020/12/03 06:42:04;;;;;;;15.45;1.50;;;13.50;99.90;;;;;;5007079;28;20401;-68
2020/12/03 06:45:01;;;;;;;31.17;3.65;;;13.50;99.90;;;;;;4999213;28;20060;-67
2020/12/03 06:48:25;;;;;;;11.63;2.88;;;13.50;99.90;;;;;;5003258;28;20065;-69
2020/12/03 06:51:23;;;;;;;7.20;2.67;;;13.50;99.90;;;;;;5072727;28;20057;-68
2020/12/03 06:54:05;;;;;;;18.90;3.15;;;13.60;99.90;;;;;;5086909;28;20127;-68
2020/12/03 06:56:50;;;;;;;11.65;2.70;;;13.60;99.90;;;;;;5005051;28;20050;-68
2020/12/03 06:59:55;;;;;;;11.90;3.03;;;13.70;99.90;;;;;;4992039;28;20100;-68
2020/12/03 07:02:50;;;;;;;20.27;3.50;;;13.80;99.90;;;;;;5006410;28;20312;-67
2020/12/03 07:05:42;;;;;;;15.98;3.25;;;13.80;99.90;;;;;;4989795;28;20054;-69
2020/12/03 07:08:42;;;;;;;22.15;3.63;;;13.90;99.90;;;;;;4991569;28;20525;-68
2020/12/03 07:11:49;;;;;;;25.30;2.90;;;14.00;99.90;;;;;;5027702;28;20110;-68
2020/12/03 07:14:38;;;;;;;29.35;3.78;;;14.10;99.90;;;;;;4991206;28;20062;-69
2020/12/03 07:17:42;;;;;;;34.63;3.92;;;14.20;99.90;;;;;;4990309;28;20060;-69
2020/12/03 07:20:46;;;;;;;20.40;3.50;;;14.30;99.90;;;;;;4990329;28;20512;-68
2020/12/03 07:23:38;;;;;;;24.52;3.75;;;14.40;99.90;;;;;;4991016;28;20088;-69
2020/12/03 07:26:37;;;;;;;15.73;2.88;;;14.50;99.90;;;;;;4991626;28;20491;-68
2020/12/03 07:29:16;;;;;;;14.52;2.85;;;14.60;99.90;;;;;;4999306;28;20556;-68
2020/12/03 07:31:47;;;;;;;27.60;4.50;;;14.60;99.90;;;;;;5006901;28;20054;-69
2020/12/03 07:34:21;;;;;;;17.10;2.53;;;14.70;99.90;;;;;;4999071;28;20077;-68
2020/12/03 07:37:18;;;;;;;7.68;2.05;;;14.70;99.90;;;;;;5006164;28;20068;-68
2020/12/03 07:39:50;;;;;;;15.75;4.25;;;14.80;99.90;;;;;;4990503;28;20054;-68
2020/12/03 07:42:22;;;;;;;12.70;2.42;;;14.80;99.90;;;;;;5006700;28;20073;-67
2020/12/03 07:44:53;;;;;;;7.13;1.38;;;14.90;99.90;;;;;;4998171;28;20498;-68
2020/12/03 07:47:49;;;;;;;12.63;2.50;;;15.00;99.90;;;;;;4991428;28;20136;-68
2020/12/03 07:50:22;;;;;;;22.00;2.35;;;15.00;99.90;;;;;;4991175;28;20055;-66
2020/12/03 07:53:15;;;;;;;14.73;2.35;;;15.10;99.90;;;;;;5000196;28;20085;-68
2020/12/03 07:55:43;;;;;;;18.48;2.08;;;15.20;99.90;;;;;;5008893;28;20137;-69
2020/12/03 07:58:40;;;;;;;12.65;1.98;;;15.20;99.90;;;;;;4995625;28;20498;-68
2020/12/03 08:01:29;;;;;;;8.02;1.33;;;15.30;99.90;;;;;;4999350;28;20115;-67
2020/12/03 08:04:17;;;;;;;13.90;2.25;;;15.30;99.90;;;;;;4989119;28;20058;-68
2020/12/03 08:07:13;;;;;;;12.25;2.53;;;15.50;99.90;;;;;;5000678;28;20129;-68
2020/12/03 08:09:43;;;;;;;13.90;1.98;;;15.50;99.90;;;;;;4995314;28;20494;-69
2020/12/03 08:12:14;;;;;;;8.82;1.25;;;15.50;99.90;;;;;;4991209;28;20182;-71
2020/12/03 08:14:46;;;;;;;15.10;2.60;;;15.50;99.90;;;;;;4999139;28;20055;-70
2020/12/03 08:17:22;;;;;;;18.27;4.10;;;15.50;99.90;;;;;;4998784;28;20092;-68
2020/12/03 08:20:06;;;;;;;13.68;2.50;;;15.50;99.90;;;;;;4998552;28;20077;-69
2020/12/03 08:22:35;;;;;;;12.80;2.90;;;15.60;99.90;;;;;;5003182;28;20060;-67
2020/12/03 08:25:05;;;;;;;10.82;1.60;;;15.60;99.90;;;;;;4999970;28;20050;-69
2020/12/03 08:27:33;;;;;;;18.42;1.88;;;15.60;99.90;;;;;;5010130;28;20049;-68
2020/12/03 08:30:00;;;;;;;11.27;1.67;;;15.70;99.90;;;;;;4999454;28;20100;-69
2020/12/03 08:32:54;;;;;;;10.35;1.83;;;15.60;99.90;;;;;;4993805;28;20050;-67
2020/12/03 08:35:21;;;;;;;18.40;2.78;;;15.60;99.90;;;;;;4974076;28;20046;-67
2020/12/03 08:37:49;;;;;;;23.88;4.05;;;15.70;99.90;;;;;;5004443;28;20089;-67
2020/12/03 08:40:16;;;;;;;8.98;2.72;;;15.70;99.90;;;;;;4999149;28;20062;-68
2020/12/03 08:42:44;;;;;;;16.40;1.98;;;15.70;99.90;;;;;;4998289;28;20043;-68
2020/12/03 08:45:13;;;;;;;13.10;2.67;;;15.70;99.90;;;;;;5005109;28;20046;-68
2020/12/03 08:47:45;;;;;;;17.63;2.10;;;15.70;99.90;;;;;;4991451;28;20046;-68
2020/12/03 08:50:14;;;;;;;18.85;4.55;;;15.70;99.90;;;;;;4982595;28;20034;-68
2020/12/03 08:52:43;;;;;;;13.95;2.47;;;15.80;99.90;;;;;;5004396;28;20062;-68
2020/12/03 08:55:12;;;;;;;23.48;3.95;;;15.80;99.90;;;;;;4998487;28;20141;-69
2020/12/03 08:57:46;;;;;;;8.57;1.60;;;15.90;99.90;;;;;;5000262;28;20052;-67
2020/12/03 09:00:18;;;;;;;15.48;1.92;;;16.00;99.90;;;;;;5001685;28;20130;-69
2020/12/03 09:02:47;;;;;;;13.55;2.13;;;16.10;99.90;;;;;;4992787;28;20077;-68
2020/12/03 09:05:17;;;;;;;14.68;2.60;;;16.20;99.90;;;;;;5009367;28;20407;-69
2020/12/03 09:07:48;;;;;;;17.55;2.20;;;16.30;99.90;;;;;;4981791;28;20046;-68
2020/12/03 09:10:19;;;;;;;18.85;3.10;;;16.30;99.90;;;;;;5004994;28;20054;-69
2020/12/03 09:12:48;;;;;;;15.82;2.17;;;16.30;99.90;;;;;;4993488;28;20060;-69
2020/12/03 09:15:17;;;;;;;10.68;1.77;;;16.40;99.90;;;;;;4994530;28;20054;-68
2020/12/03 09:17:51;;;;;;;12.50;3.53;;;16.40;99.90;;;;;;4997159;28;20092;-68
2020/12/03 09:20:19;;;;;;;21.23;2.63;;;16.40;99.90;;;;;;4997360;28;20567;-69
2020/12/03 09:22:47;;;;;;;22.50;4.22;;;16.40;99.90;;;;;;4999479;28;20051;-67
2020/12/03 09:25:15;;;;;;;20.92;2.40;;;16.40;99.90;;;;;;5009246;28;20103;-68
2020/12/03 09:27:47;;;;;;;13.48;2.97;;;16.40;99.90;;;;;;4998253;28;20042;-68
2020/12/03 09:30:44;;;;;;;19.30;1.58;;;16.40;99.90;;;;;;4999244;28;20049;-68
2020/12/03 09:33:22;;;;;;;10.20;1.50;;;16.30;99.90;;;;;;5007493;28;20042;-68
2020/12/03 09:35:52;;;;;;;11.63;0.95;;;16.40;99.90;;;;;;4994950;28;20050;-68
2020/12/03 09:38:20;;;;;;;18.77;1.40;;;16.40;99.90;;;;;;4999068;28;20127;-68
2020/12/03 09:40:49;;;;;;;16.58;2.40;;;16.30;99.90;;;;;;5003825;28;20054;-68
2020/12/03 09:43:23;;;;;;;12.80;1.50;;;16.40;99.90;;;;;;4996409;28;20146;-67
2020/12/03 09:45:56;;;;;;;12.35;1.70;;;16.40;99.90;;;;;;5012200;28;20054;-68
2020/12/03 09:48:26;;;;;;;17.20;2.00;;;16.40;99.90;;;;;;4999380;28;20074;-68
2020/12/03 09:50:54;;;;;;;15.30;1.75;;;16.50;99.90;;;;;;5001175;28;20053;-69
2020/12/03 09:53:22;;;;;;;15.90;1.55;;;16.40;99.90;;;;;;4991467;28;20058;-68
2020/12/03 09:55:50;;;;;;;17.30;3.28;;;16.40;99.90;;;;;;5009166;28;20161;-69
2020/12/03 09:58:21;;;;;;;17.98;3.65;;;16.40;99.90;;;;;;4993239;28;20105;-68
2020/12/03 10:00:52;;;;;;;13.48;2.60;;;16.40;99.90;;;;;;5000874;28;20062;-70
2020/12/03 10:03:58;;;;;;;16.75;2.00;;;16.40;99.90;;;;;;4995836;28;20541;-68
2020/12/03 10:06:35;;;;;;;7.60;1.15;;;16.50;99.90;;;;;;5006981;28;20081;-68
2020/12/03 10:09:03;;;;;;;9.63;1.92;;;16.50;99.90;;;;;;4999471;28;20046;-69
2020/12/03 10:11:58;;;;;;;16.17;2.55;;;16.50;99.90;;;;;;4993086;28;20504;-68
2020/12/03 10:14:54;;;;;;;16.23;1.80;;;16.50;99.90;;;;;;5003419;28;20061;-67
2020/12/03 10:17:29;;;;;;;6.72;1.45;;;16.50;99.90;;;;;;4983955;28;20495;-68
2020/12/03 10:20:00;;;;;;;6.80;1.52;;;16.50;99.90;;;;;;4998571;28;20049;-69
2020/12/03 10:22:43;;;;;;;11.82;2.08;;;16.50;99.90;;;;;;5008258;28;20046;-68
2020/12/03 10:25:23;;;;;;;8.00;1.45;;;16.50;99.90;;;;;;5008281;28;20129;-69
2020/12/03 10:28:16;;;;;;;10.55;1.63;;;16.50;99.90;;;;;;5005415;28;20388;-68
2020/12/03 10:30:46;;;;;;;10.35;2.33;;;16.50;99.90;;;;;;4991806;28;20042;-68
2020/12/03 10:33:15;;;;;;;8.82;1.98;;;16.50;99.90;;;;;;5007620;28;20065;-69
2020/12/03 10:35:48;;;;;;;18.13;2.53;;;16.60;99.90;;;;;;5003359;28;20052;-67
2020/12/03 10:38:24;;;;;;;7.88;1.33;;;16.60;99.90;;;;;;4994525;28;20050;-70
2020/12/03 10:40:55;;;;;;;14.10;2.60;;;16.70;99.90;;;;;;5004734;28;20136;-67
2020/12/03 10:43:31;;;;;;;10.90;1.80;;;16.70;99.90;;;;;;4993366;28;20436;-69
2020/12/03 10:46:03;;;;;;;13.02;1.58;;;16.80;99.90;;;;;;4999032;28;20088;-68
2020/12/03 10:48:34;;;;;;;12.95;2.03;;;16.80;99.90;;;;;;4999805;28;20506;-69
2020/12/03 10:51:07;;;;;;;7.90;2.30;;;16.80;99.90;;;;;;4998002;28;20397;-69
2020/12/03 10:53:37;;;;;;;13.15;3.05;;;16.90;99.90;;;;;;4999836;28;20068;-69
2020/12/03 10:56:12;;;;;;;22.83;3.60;;;16.90;99.90;;;;;;4983287;28;20046;-68
2020/12/03 10:59:00;;;;;;;11.45;2.97;;;16.90;99.90;;;;;;4999522;28;20057;-68
2020/12/03 11:01:32;;;;;;;13.65;2.95;;;16.90;99.90;;;;;;4996692;28;20062;-68
2020/12/03 11:04:06;;;;;;;14.45;3.30;;;16.90;99.90;;;;;;4993787;28;20043;-69
2020/12/03 11:06:34;;;;;;;23.08;3.33;;;16.90;99.90;;;;;;5004591;28;20047;-68
2020/12/03 11:09:05;;;;;;;12.93;1.75;;;16.80;99.90;;;;;;4974934;28;20103;-68
2020/12/03 11:11:36;;;;;;;21.80;2.70;;;16.70;99.90;;;;;;5000102;28;20062;-69
2020/12/03 11:14:11;;;;;;;12.93;1.58;;;16.80;99.90;;;;;;4991632;28;20105;-68
2020/12/03 11:16:45;;;;;;;16.50;3.03;;;16.90;99.90;;;;;;5005301;28;20066;-67
2020/12/03 11:19:36;;;;;;;14.43;3.00;;;16.90;99.90;;;;;;4996084;28;20103;-69
2020/12/03 11:22:20;;;;;;;19.80;4.22;;;16.90;99.90;;;;;;4994494;28;20606;-68
2020/12/03 11:25:02;;;;;;;24.25;5.10;;;16.90;99.90;;;;;;5004059;28;20100;-67
2020/12/03 11:27:30;;;;;;;9.27;2.72;;;17.00;99.90;;;;;;5001683;28;20057;-68
2020/12/03 11:30:13;;;;;;;20.83;3.40;;;17.10;99.90;;;;;;5001939;28;20046;-69
2020/12/03 11:32:46;;;;;;;10.95;1.95;;;17.20;99.90;;;;;;4991596;28;20050;-68
2020/12/03 11:35:32;;;;;;;16.15;3.50;;;17.20;99.90;;;;;;5007512;28;20084;-68
2020/12/03 11:38:02;;;;;;;14.93;3.38;;;17.20;99.90;;;;;;4991647;28;20050;-68
2020/12/03 11:40:56;;;;;;;14.45;2.60;;;17.20;99.90;;;;;;5002175;28;20058;-68
2020/12/03 11:49:00;;;;;;;;;;;17.00;99.90;;;;;;4997758;28;20050;-68
2020/12/03 11:51:36;;;;;;;14.88;3.70;;;16.90;99.90;;;;;;4976486;28;19967;-68
2020/12/03 11:54:06;;;;;;;14.40;3.40;;;16.70;99.90;;;;;;4996131;28;20108;-68
2020/12/03 11:56:35;;;;;;;21.70;3.58;;;16.60;99.90;;;;;;4991719;28;20450;-68
2020/12/03 11:59:17;;;;;;;16.70;3.70;;;16.60;99.90;;;;;;5004757;28;20095;-68
2020/12/03 12:02:11;;;;;;;14.15;3.30;;;16.60;99.90;;;;;;4990624;28;20055;-66
2020/12/03 12:12:26;;;;;;;27.90;3.10;;;16.50;99.90;;;;;;5008523;28;20433;-67
2020/12/03 12:14:53;;;;;;;17.60;4.45;;;16.40;99.90;;;;;;4993843;28;20062;-68
2020/12/03 12:17:21;;;;;;;18.75;3.20;;;16.40;99.90;;;;;;5010228;28;20099;-68
2020/12/03 12:19:52;;;;;;;12.18;2.70;;;16.40;99.90;;;;;;5008455;28;20143;-68
2020/12/03 12:22:20;;;;;;;15.63;3.45;;;16.40;99.90;;;;;;5008563;28;20053;-67
2020/12/03 12:24:47;;;;;;;20.80;3.72;;;16.40;99.90;;;;;;4993702;28;20050;-68
2020/12/03 12:27:15;;;;;;;17.45;3.15;;;16.40;99.90;;;;;;5005985;28;20046;-68
2020/12/03 12:29:43;;;;;;;10.00;1.85;;;16.30;99.90;;;;;;5004150;28;20124;-69
2020/12/03 12:32:13;;;;;;;17.38;5.53;;;16.30;99.90;;;;;;4994159;28;20129;-68
2020/12/03 12:34:44;;;;;;;12.88;3.88;;;16.40;99.90;;;;;;5010276;28;20056;-68
2020/12/03 12:37:12;;;;;;;12.40;1.70;;;16.40;99.90;;;;;;4992968;28;20050;-68
2020/12/03 12:39:40;;;;;;;22.05;5.05;;;16.40;99.90;;;;;;5008704;28;20058;-67
2020/12/03 12:42:09;;;;;;;22.92;4.00;;;16.40;99.90;;;;;;4991399;28;20145;-69
2020/12/03 12:44:37;;;;;;;15.25;3.30;;;16.40;99.90;;;;;;4996241;28;20065;-68
2020/12/03 12:47:06;;;;;;;21.92;3.17;;;16.40;99.90;;;;;;4988872;28;20050;-68
2020/12/03 12:49:34;;;;;;;19.48;3.67;;;16.40;99.90;;;;;;5003667;28;20050;-68
2020/12/03 12:52:02;;;;;;;16.00;2.80;;;16.40;99.90;;;;;;5008530;28;20135;-69
2020/12/03 12:54:29;;;;;;;14.55;4.40;;;16.40;99.90;;;;;;5002187;28;20050;-69
2020/12/03 12:57:00;;;;;;;16.10;2.35;;;16.30;99.90;;;;;;5008408;28;20049;-69
2020/12/03 12:59:28;;;;;;;12.85;2.20;;;16.30;99.90;;;;;;5009731;28;20046;-68
2020/12/03 13:01:56;;;;;;;12.20;1.75;;;16.30;99.90;;;;;;4980727;28;20047;-69
2020/12/03 13:04:24;;;;;;;15.90;2.92;;;16.30;99.90;;;;;;5008548;28;20046;-69
2020/12/03 13:06:54;;;;;;;15.23;3.95;;;16.30;99.90;;;;;;5010747;28;20053;-68
2020/12/03 13:09:23;;;;;;;21.90;4.75;;;16.30;99.90;;;;;;5011853;28;20046;-69
2020/12/03 13:11:50;;;;;;;17.80;2.47;;;16.20;99.90;;;;;;4992653;28;20125;-67
2020/12/03 13:14:20;;;;;;;20.80;4.70;;;16.20;99.90;;;;;;4991999;28;20576;-70
2020/12/03 13:16:48;;;;;;;28.70;5.78;;;16.10;99.90;;;;;;4996222;28;20050;-68
2020/12/03 13:19:18;;;;;;;18.02;3.33;;;16.10;99.90;;;;;;4998027;28;20050;-68
2020/12/03 13:21:51;;;;;;;14.88;4.32;;;16.10;99.90;;;;;;5011592;28;20095;-68
2020/12/03 13:24:19;;;;;;;20.80;4.07;;;16.00;99.90;;;;;;5010964;28;20045;-69
2020/12/03 13:26:48;;;;;;;18.85;3.28;;;16.00;99.90;;;;;;5002227;28;20470;-68
2020/12/03 13:29:16;;;;;;;12.63;2.97;;;15.90;99.90;;;;;;4992490;28;20602;-68
2020/12/03 13:31:47;;;;;;;14.63;3.10;;;15.90;99.90;;;;;;4994551;28;20418;-67
2020/12/03 13:34:15;;;;;;;12.23;2.65;;;15.60;99.90;;;;;;4984001;28;20050;-68
2020/12/03 13:36:43;;;;;;;13.25;3.30;;;15.30;99.90;;;;;;5008591;28;20141;-68
2020/12/03 13:39:10;;;;;;;12.70;2.75;;;15.10;99.90;;;;;;5012457;28;20057;-67
2020/12/03 13:41:38;;;;;;;19.73;3.70;;;15.00;99.90;;;;;;5005486;28;20061;-67
2020/12/03 13:44:05;;;;;;;9.73;4.15;;;14.80;99.90;;;;;;5009743;28;20141;-68
2020/12/03 13:46:38;;;;;;;7.25;2.80;;;14.80;99.90;;;;;;5011312;28;20049;-68
2020/12/03 13:49:06;;;;;;;8.95;3.95;;;14.80;99.90;;;;;;5011063;28;20049;-68
2020/12/03 13:51:34;;;;;;;11.20;4.38;;;14.70;99.90;;;;;;5004019;28;20494;-68
2020/12/03 13:54:02;;;;;;;16.83;6.35;;;14.70;99.90;;;;;;5010188;28;20050;-69
2020/12/03 13:56:31;;;;;;;9.93;3.38;;;14.70;99.90;;;;;;5011935;28;20391;-68
2020/12/03 13:58:59;;;;;;;5.78;0.90;;;14.70;99.90;;;;;;5003260;28;20046;-68
2020/12/03 14:01:27;;;;;;;6.28;1.67;;;14.70;99.90;;;;;;5012130;28;20075;-68
2020/12/03 14:03:57;;;;;;;5.90;1.77;;;14.70;99.90;;;;;;5011675;28;20064;-69
2020/12/03 14:06:24;;;;;;;6.18;1.50;;;14.70;99.90;;;;;;5008788;28;20513;-68
2020/12/03 14:08:52;;;;;;;2.40;0.50;;;14.70;99.90;;;;;;4992966;28;20050;-68
2020/12/03 14:11:21;;;;;;;16.77;8.15;;;14.70;99.90;;;;;;4991833;28;20146;-68
2020/12/03 14:13:49;;;;;;;14.60;6.57;;;14.80;99.90;;;;;;4991521;28;20141;-68
2020/12/03 14:16:16;;;;;;;22.05;12.05;;;14.80;99.90;;;;;;5008276;28;20434;-68
2020/12/03 14:18:44;;;;;;;21.17;7.30;;;14.80;99.90;;;;;;4983817;28;20406;-69
2020/12/03 14:21:12;;;;;;;27.77;5.40;;;14.80;99.90;;;;;;4991547;28;20054;-68
2020/12/03 14:23:40;;;;;;;16.38;6.43;;;14.90;99.90;;;;;;4991769;28;20388;-67
2020/12/03 14:26:08;;;;;;;13.93;3.38;;;15.00;99.90;;;;;;4992972;28;20107;-68
2020/12/03 14:28:36;;;;;;;17.90;4.15;;;15.10;99.90;;;;;;4991757;28;20043;-68
2020/12/03 14:31:04;;;;;;;24.38;4.78;;;15.00;99.90;;;;;;4983920;28;20045;-69
2020/12/03 14:33:31;;;;;;;23.20;5.13;;;15.10;99.90;;;;;;4992191;28;20070;-68
2020/12/03 14:35:59;;;;;;;22.42;3.00;;;15.10;99.90;;;;;;4992666;28;20073;-68
2020/12/03 14:38:27;;;;;;;21.65;2.90;;;15.10;99.90;;;;;;4991454;28;20054;-68
2020/12/03 14:40:54;;;;;;;20.52;4.38;;;15.10;99.90;;;;;;5008356;28;20054;-68
2020/12/03 14:43:22;;;;;;;24.50;4.65;;;15.10;99.90;;;;;;5009308;28;20140;-68
2020/12/03 14:45:50;;;;;;;20.67;4.65;;;15.10;99.90;;;;;;5011243;28;20159;-68
2020/12/03 14:48:20;;;;;;;15.55;3.70;;;15.10;99.90;;;;;;5010391;28;20057;-69
2020/12/03 14:50:49;;;;;;;17.25;3.42;;;15.10;99.90;;;;;;5010326;28;20061;-68
2020/12/03 14:53:17;;;;;;;18.52;4.07;;;15.10;99.90;;;;;;4991900;28;20174;-69
2020/12/03 14:55:48;;;;;;;20.25;2.53;;;15.20;99.90;;;;;;4991200;28;20422;-68
2020/12/03 14:58:24;;;;;;;25.55;3.67;;;15.20;99.90;;;;;;5000904;28;20049;-67
2020/12/03 15:00:54;;;;;;;10.88;2.55;;;15.10;99.90;;;;;;4996659;28;20151;-67
2020/12/03 15:03:22;;;;;;;12.02;2.83;;;15.10;99.90;;;;;;4991544;28;20092;-68
2020/12/03 15:05:49;;;;;;;12.45;2.30;;;15.00;99.90;;;;;;4991267;28;20078;-68
2020/12/03 15:08:19;;;;;;;15.82;3.63;;;14.90;99.90;;;;;;4999730;28;20046;-68
2020/12/03 15:11:00;;;;;;;28.27;4.28;;;14.80;99.90;;;;;;5011169;28;20050;-68
2020/12/03 15:13:29;;;;;;;15.77;3.97;;;14.70;99.90;;;;;;5010254;28;20054;-69
2020/12/03 15:15:58;;;;;;;22.45;4.07;;;14.60;99.90;;;;;;5005882;28;20403;-69
2020/12/03 15:18:26;;;;;;;17.48;4.80;;;14.60;99.90;;;;;;4990877;28;20096;-68
2020/12/03 15:20:55;;;;;;;23.60;3.72;;;14.60;99.90;;;;;;4992299;28;20050;-68
2020/12/03 15:23:23;;;;;;;19.55;4.40;;;14.50;99.90;;;;;;5010463;28;20054;-69
2020/12/03 15:25:53;;;;;;;32.17;4.85;;;14.50;99.90;;;;;;5004871;28;20104;-68
2020/12/03 15:28:24;;;;;;;27.23;5.75;;;14.40;99.90;;;;;;4991941;28;20103;-67
2020/12/03 15:30:51;;;;;;;17.83;3.83;;;14.40;99.90;;;;;;4974228;28;20084;-68
2020/12/03 15:33:19;;;;;;;21.73;3.78;;;14.40;99.90;;;;;;4991269;28;20133;-68
2020/12/03 15:35:46;;;;;;;19.17;3.42;;;14.30;99.90;;;;;;4991768;28;20060;-69
2020/12/03 15:38:14;;;;;;;18.65;4.18;;;14.30;99.90;;;;;;5002764;28;20050;-67
2020/12/03 15:40:42;;;;;;;15.80;3.70;;;14.30;99.90;;;;;;5001863;28;20078;-69
2020/12/03 15:43:12;;;;;;;18.05;4.35;;;14.30;99.90;;;;;;4988492;28;20046;-68
2020/12/03 15:45:40;;;;;;;27.90;5.20;;;14.20;99.90;;;;;;4997029;28;20065;-68
2020/12/03 15:48:26;;;;;;;10.60;2.78;;;14.20;99.90;;;;;;5010524;28;20046;-68
2020/12/03 15:50:55;;;;;;;;;;;14.20;99.90;;;;;;5009532;28;20058;-69
2020/12/03 15:53:23;;;;;;;14.68;2.88;;;14.10;99.90;;;;;;5005058;28;19945;-67
2020/12/03 15:55:51;;;;;;;12.02;2.38;;;14.10;99.90;;;;;;4990545;28;20073;-69
2020/12/03 15:58:19;;;;;;;24.02;4.32;;;14.00;99.90;;;;;;4991184;28;20058;-68
2020/12/03 16:00:47;;;;;;;11.48;2.47;;;13.90;99.90;;;;;;4991446;28;20054;-68
2020/12/03 16:03:15;;;;;;;15.68;2.63;;;13.90;99.90;;;;;;5007745;28;20060;-68
2020/12/03 16:05:43;;;;;;;7.05;2.65;;;13.80;99.90;;;;;;5009115;28;20046;-68
2020/12/03 16:08:11;;;;;;;24.98;5.38;;;13.70;99.90;;;;;;5007183;28;20094;-68
2020/12/03 16:10:39;;;;;;;10.05;2.10;;;13.70;99.90;;;;;;4998806;28;20054;-67
2020/12/03 16:13:07;;;;;;;19.40;3.40;;;13.70;99.90;;;;;;4989640;28;20070;-68
2020/12/03 16:15:34;;;;;;;8.93;3.17;;;13.60;99.90;;;;;;4989981;28;20080;-68
2020/12/03 16:18:04;;;;;;;13.80;1.95;;;13.60;99.90;;;;;;4998824;28;20050;-68
2020/12/03 16:20:31;;;;;;;14.20;4.68;;;13.50;99.90;;;;;;4991044;28;20065;-68
2020/12/03 16:22:59;;;;;;;14.98;2.78;;;13.50;99.90;;;;;;4982753;28;20046;-68
2020/12/03 16:25:26;;;;;;;14.77;3.13;;;13.50;99.90;;;;;;4991025;28;20051;-68